sensor_id;sensor_type;location;lat;lon;timestamp;pressure;altitude;pressure_sealevel;temperature;humidity
12636;BME280;6383;50.830;7.210;2023-04-08T00:00:23;101379.41;;;11.66;83.55
12636;BME280;6383;50.830;7.210;2023-04-08T00:02:52;101380.50;;;11.65;84.27
12636;BME280;6383;50.830;7.210;2023-04-08T00:05:21;101385.16;;;11.64;84.44
12636;BME280;6383;50.830;7.210;2023-04-08T00:07:52;101385.16;;;11.64;83.41
12636;BME280;6383;50.830;7.210;2023-04-08T00:10:20;101386.25;;;11.63;83.62
12636;BME280;6383;50.830;7.210;2023-04-08T00:12:48;101388.97;;;11.63;83.64
12636;BME280;6383;50.830;7.210;2023-04-08T00:15:15;101390.88;;;11.63;84.13
12636;BME280;6383;50.830;7.210;2023-04-08T00:17:44;101390.06;;;11.62;83.42
12636;BME280;6383;50.830;7.210;2023-04-08T00:20:12;101381.91;;;11.62;83.82
12636;BME280;6383;50.830;7.210;2023-04-08T00:22:39;101389.25;;;11.62;84.06
12636;BME280;6383;50.830;7.210;2023-04-08T00:25:09;101390.06;;;11.62;83.41
12636;BME280;6383;50.830;7.210;2023-04-08T00:27:37;101393.91;;;11.61;83.94
12636;BME280;6383;50.830;7.210;2023-04-08T00:30:07;101389.53;;;11.60;83.64
12636;BME280;6383;50.830;7.210;2023-04-08T00:32:35;101390.66;;;11.59;83.28
12636;BME280;6383;50.830;7.210;2023-04-08T00:35:05;101395.81;;;11.61;83.91
12636;BME280;6383;50.830;7.210;2023-04-08T00:37:32;101389.53;;;11.60;84.14
12636;BME280;6383;50.830;7.210;2023-04-08T00:40:01;101394.72;;;11.62;83.77
12636;BME280;6383;50.830;7.210;2023-04-08T00:42:31;101393.91;;;11.61;83.71
12636;BME280;6383;50.830;7.210;2023-04-08T00:45:00;101391.19;;;11.61;84.19
12636;BME280;6383;50.830;7.210;2023-04-08T00:47:30;101388.72;;;11.60;83.86
12636;BME280;6383;50.830;7.210;2023-04-08T00:49:57;101392.28;;;11.60;84.09
12636;BME280;6383;50.830;7.210;2023-04-08T00:52:25;101395.81;;;11.61;83.92
12636;BME280;6383;50.830;7.210;2023-04-08T00:54:54;101399.63;;;11.60;84.36
12636;BME280;6383;50.830;7.210;2023-04-08T00:57:23;101395.81;;;11.61;83.60
12636;BME280;6383;50.830;7.210;2023-04-08T00:59:54;101383.28;;;11.60;83.52
12636;BME280;6383;50.830;7.210;2023-04-08T01:02:32;101396.09;;;11.59;84.36
12636;BME280;6383;50.830;7.210;2023-04-08T01:05:04;101396.91;;;11.60;83.54
12636;BME280;6383;50.830;7.210;2023-04-08T01:07:36;101392.28;;;11.60;83.92
12636;BME280;6383;50.830;7.210;2023-04-08T01:10:09;101390.38;;;11.61;83.46
12636;BME280;6383;50.830;7.210;2023-04-08T01:12:41;101396.63;;;11.61;83.76
12636;BME280;6383;50.830;7.210;2023-04-08T01:15:13;101402.09;;;11.61;83.52
12636;BME280;6383;50.830;7.210;2023-04-08T01:17:43;101397.44;;;11.62;83.65
12636;BME280;6383;50.830;7.210;2023-04-08T01:20:12;101390.06;;;11.62;84.14
12636;BME280;6383;50.830;7.210;2023-04-08T01:22:54;101399.06;;;11.63;83.84
12636;BME280;6383;50.830;7.210;2023-04-08T01:25:29;101406.44;;;11.62;84.69
12636;BME280;6383;50.830;7.210;2023-04-08T01:28:04;101405.91;;;11.60;83.79
12636;BME280;6383;50.830;7.210;2023-04-08T01:30:34;101408.91;;;11.59;84.03
12636;BME280;6383;50.830;7.210;2023-04-08T01:33:05;101403.78;;;11.57;83.88
12636;BME280;6383;50.830;7.210;2023-04-08T01:35:35;101409.50;;;11.56;84.53
12636;BME280;6383;50.830;7.210;2023-04-08T01:38:06;101407.06;;;11.54;84.56
12636;BME280;6383;50.830;7.210;2023-04-08T01:40:37;101409.25;;;11.52;84.61
12636;BME280;6383;50.830;7.210;2023-04-08T01:43:13;101402.19;;;11.51;83.84
12636;BME280;6383;50.830;7.210;2023-04-08T01:45:42;101398.94;;;11.49;84.65
12636;BME280;6383;50.830;7.210;2023-04-08T01:48:12;101404.66;;;11.48;84.35
12636;BME280;6383;50.830;7.210;2023-04-08T01:50:42;101409.56;;;11.46;83.85
12636;BME280;6383;50.830;7.210;2023-04-08T01:53:11;101401.69;;;11.44;84.54
12636;BME280;6383;50.830;7.210;2023-04-08T01:55:40;101407.94;;;11.45;84.94
12636;BME280;6383;50.830;7.210;2023-04-08T01:58:11;101411.78;;;11.44;84.97
12636;BME280;6383;50.830;7.210;2023-04-08T02:00:45;101410.13;;;11.43;84.39
12636;BME280;6383;50.830;7.210;2023-04-08T02:03:16;101403.91;;;11.42;84.07
12636;BME280;6383;50.830;7.210;2023-04-08T02:05:46;101414.28;;;11.40;84.42
12636;BME280;6383;50.830;7.210;2023-04-08T02:08:15;101407.47;;;11.38;84.43
12636;BME280;6383;50.830;7.210;2023-04-08T02:10:44;101412.94;;;11.38;84.93
12636;BME280;6383;50.830;7.210;2023-04-08T02:13:14;101408.56;;;11.37;84.73
12636;BME280;6383;50.830;7.210;2023-04-08T02:15:46;101408.56;;;11.37;85.00
12636;BME280;6383;50.830;7.210;2023-04-08T02:18:23;101405.03;;;11.36;84.79
12636;BME280;6383;50.830;7.210;2023-04-08T02:20:56;101405.84;;;11.37;85.44
12636;BME280;6383;50.830;7.210;2023-04-08T02:23:27;101412.13;;;11.37;85.71
12636;BME280;6383;50.830;7.210;2023-04-08T02:25:57;101414.03;;;11.37;85.14
12636;BME280;6383;50.830;7.210;2023-04-08T02:28:27;101411.03;;;11.38;85.58
12636;BME280;6383;50.830;7.210;2023-04-08T02:30:59;101414.56;;;11.39;85.99
12636;BME280;6383;50.830;7.210;2023-04-08T02:33:27;101411.84;;;11.39;85.61
12636;BME280;6383;50.830;7.210;2023-04-08T02:35:56;101412.66;;;11.39;85.65
12636;BME280;6383;50.830;7.210;2023-04-08T02:38:27;101415.38;;;11.39;85.50
12636;BME280;6383;50.830;7.210;2023-04-08T02:40:56;101414.28;;;11.40;85.60
12636;BME280;6383;50.830;7.210;2023-04-08T02:43:26;101417.81;;;11.41;85.79
12636;BME280;6383;50.830;7.210;2023-04-08T02:45:58;101413.19;;;11.41;86.08
12636;BME280;6383;50.830;7.210;2023-04-08T02:48:30;101414.00;;;11.42;85.24
12636;BME280;6383;50.830;7.210;2023-04-08T02:50:59;101414.81;;;11.42;85.87
12636;BME280;6383;50.830;7.210;2023-04-08T02:53:26;101422.16;;;11.42;85.67
12636;BME280;6383;50.830;7.210;2023-04-08T02:55:54;101418.63;;;11.41;85.50
12636;BME280;6383;50.830;7.210;2023-04-08T02:58:23;101419.44;;;11.42;85.78
12636;BME280;6383;50.830;7.210;2023-04-08T03:00:52;101421.03;;;11.43;85.42
12636;BME280;6383;50.830;7.210;2023-04-08T03:03:21;101417.81;;;11.41;85.19
12636;BME280;6383;50.830;7.210;2023-04-08T03:05:53;101419.72;;;11.40;85.30
12636;BME280;6383;50.830;7.210;2023-04-08T03:08:21;101421.34;;;11.41;84.98
12636;BME280;6383;50.830;7.210;2023-04-08T03:10:51;101424.91;;;11.42;85.78
12636;BME280;6383;50.830;7.210;2023-04-08T03:13:19;101421.34;;;11.41;85.92
12636;BME280;6383;50.830;7.210;2023-04-08T03:15:48;101424.09;;;11.41;85.21
12636;BME280;6383;50.830;7.210;2023-04-08T03:18:19;101425.47;;;11.39;85.09
12636;BME280;6383;50.830;7.210;2023-04-08T03:20:46;101430.66;;;11.35;85.00
12636;BME280;6383;50.830;7.210;2023-04-08T03:23:14;101423.84;;;11.38;84.92
12636;BME280;6383;50.830;7.210;2023-04-08T03:25:43;101435.53;;;11.38;85.34
12636;BME280;6383;50.830;7.210;2023-04-08T03:28:12;101427.38;;;11.38;84.75
12636;BME280;6383;50.830;7.210;2023-04-08T03:30:40;101430.91;;;11.39;85.37
12636;BME280;6383;50.830;7.210;2023-04-08T03:33:07;101432.28;;;11.36;85.06
12636;BME280;6383;50.830;7.210;2023-04-08T03:35:37;101438.56;;;11.37;85.44
12636;BME280;6383;50.830;7.210;2023-04-08T03:38:05;101432.28;;;11.36;85.40
12636;BME280;6383;50.830;7.210;2023-04-08T03:40:33;101433.91;;;11.37;85.28
12636;BME280;6383;50.830;7.210;2023-04-08T03:43:02;101426.84;;;11.36;85.75
12636;BME280;6383;50.830;7.210;2023-04-08T03:45:32;101435.00;;;11.36;85.45
12636;BME280;6383;50.830;7.210;2023-04-08T03:48:01;101442.38;;;11.36;85.33
12636;BME280;6383;50.830;7.210;2023-04-08T03:50:28;101432.00;;;11.38;85.11
12636;BME280;6383;50.830;7.210;2023-04-08T03:52:59;101434.72;;;11.38;85.36
12636;BME280;6383;50.830;7.210;2023-04-08T03:55:27;101426.56;;;11.38;85.21
12636;BME280;6383;50.830;7.210;2023-04-08T03:57:56;101430.91;;;11.39;85.72
12636;BME280;6383;50.830;7.210;2023-04-08T04:00:24;101430.09;;;11.38;85.37
12636;BME280;6383;50.830;7.210;2023-04-08T04:02:51;101430.91;;;11.39;85.91
12636;BME280;6383;50.830;7.210;2023-04-08T04:05:22;101432.00;;;11.38;85.33
12636;BME280;6383;50.830;7.210;2023-04-08T04:07:50;101433.91;;;11.37;85.71
12636;BME280;6383;50.830;7.210;2023-04-08T04:10:21;101435.53;;;11.38;86.01
12636;BME280;6383;50.830;7.210;2023-04-08T04:12:50;101435.53;;;11.38;85.46
12636;BME280;6383;50.830;7.210;2023-04-08T04:15:19;101430.09;;;11.38;85.14
12636;BME280;6383;50.830;7.210;2023-04-08T04:17:47;101433.34;;;11.40;85.82
12636;BME280;6383;50.830;7.210;2023-04-08T04:20:16;101441.25;;;11.42;85.77
12636;BME280;6383;50.830;7.210;2023-04-08T04:22:45;101450.25;;;11.42;85.59
12636;BME280;6383;50.830;7.210;2023-04-08T04:25:14;101452.16;;;11.42;85.23
12636;BME280;6383;50.830;7.210;2023-04-08T04:27:44;101446.69;;;11.42;85.07
12636;BME280;6383;50.830;7.210;2023-04-08T04:30:13;101443.16;;;11.41;85.52
12636;BME280;6383;50.830;7.210;2023-04-08T04:32:43;101445.88;;;11.41;85.76
12636;BME280;6383;50.830;7.210;2023-04-08T04:35:11;101448.63;;;11.41;85.14
12636;BME280;6383;50.830;7.210;2023-04-08T04:37:40;101450.53;;;11.41;85.29
12636;BME280;6383;50.830;7.210;2023-04-08T04:40:08;101457.59;;;11.42;85.54
12636;BME280;6383;50.830;7.210;2023-04-08T04:42:37;101458.69;;;11.41;85.99
12636;BME280;6383;50.830;7.210;2023-04-08T04:45:09;101465.78;;;11.42;86.11
12636;BME280;6383;50.830;7.210;2023-04-08T04:47:38;101457.59;;;11.42;85.79
12636;BME280;6383;50.830;7.210;2023-04-08T04:50:08;101459.78;;;11.40;85.46
12636;BME280;6383;50.830;7.210;2023-04-08T04:52:37;101466.88;;;11.41;85.49
12636;BME280;6383;50.830;7.210;2023-04-08T04:55:07;101461.72;;;11.39;85.94
12636;BME280;6383;50.830;7.210;2023-04-08T04:57:35;101460.91;;;11.39;85.23
12636;BME280;6383;50.830;7.210;2023-04-08T05:00:04;101458.97;;;11.39;84.92
12636;BME280;6383;50.830;7.210;2023-04-08T05:02:36;101467.16;;;11.39;84.72
12636;BME280;6383;50.830;7.210;2023-04-08T05:05:06;101460.91;;;11.39;85.05
12636;BME280;6383;50.830;7.210;2023-04-08T05:07:34;101456.53;;;11.38;84.84
12636;BME280;6383;50.830;7.210;2023-04-08T05:10:04;101465.53;;;11.38;85.23
12636;BME280;6383;50.830;7.210;2023-04-08T05:12:31;101467.44;;;11.38;84.24
12636;BME280;6383;50.830;7.210;2023-04-08T05:15:01;101465.81;;;11.37;84.88
12636;BME280;6383;50.830;7.210;2023-04-08T05:17:30;101464.19;;;11.36;84.65
12636;BME280;6383;50.830;7.210;2023-04-08T05:20:00;101462.28;;;11.36;85.03
12636;BME280;6383;50.830;7.210;2023-04-08T05:22:29;101466.91;;;11.36;84.74
12636;BME280;6383;50.830;7.210;2023-04-08T05:24:58;101475.91;;;11.36;85.03
12636;BME280;6383;50.830;7.210;2023-04-08T05:27:27;101465.28;;;11.35;85.45
12636;BME280;6383;50.830;7.210;2023-04-08T05:29:55;101475.38;;;11.34;85.88
12636;BME280;6383;50.830;7.210;2023-04-08T05:32:23;101477.00;;;11.35;85.02
12636;BME280;6383;50.830;7.210;2023-04-08T05:34:52;101478.09;;;11.34;85.79
12636;BME280;6383;50.830;7.210;2023-04-08T05:37:22;101473.72;;;11.33;85.32
12636;BME280;6383;50.830;7.210;2023-04-08T05:39:49;101486.25;;;11.34;84.69
12636;BME280;6383;50.830;7.210;2023-04-08T05:42:17;101484.91;;;11.31;85.12
12636;BME280;6383;50.830;7.210;2023-04-08T05:44:46;101493.91;;;11.32;85.09
12636;BME280;6383;50.830;7.210;2023-04-08T05:47:15;101495.53;;;11.33;84.47
12636;BME280;6383;50.830;7.210;2023-04-08T05:49:43;101491.19;;;11.32;84.59
12636;BME280;6383;50.830;7.210;2023-04-08T05:52:19;101495.00;;;11.31;84.87
12636;BME280;6383;50.830;7.210;2023-04-08T05:54:56;101499.34;;;11.32;84.45
12636;BME280;6383;50.830;7.210;2023-04-08T05:57:25;101495.53;;;11.33;84.62
12636;BME280;6383;50.830;7.210;2023-04-08T06:00:01;101505.34;;;11.34;84.16
12636;BME280;6383;50.830;7.210;2023-04-08T06:02:30;101508.06;;;11.34;84.83
12636;BME280;6383;50.830;7.210;2023-04-08T06:04:59;101505.34;;;11.34;85.10
12636;BME280;6383;50.830;7.210;2023-04-08T06:07:28;101508.59;;;11.36;84.75
12636;BME280;6383;50.830;7.210;2023-04-08T06:09:57;101514.06;;;11.36;84.91
12636;BME280;6383;50.830;7.210;2023-04-08T06:12:26;101512.97;;;11.37;84.69
12636;BME280;6383;50.830;7.210;2023-04-08T06:14:55;101513.25;;;11.36;84.07
12636;BME280;6383;50.830;7.210;2023-04-08T06:17:24;101515.97;;;11.36;83.85
12636;BME280;6383;50.830;7.210;2023-04-08T06:19:53;101521.41;;;11.36;83.32
12636;BME280;6383;50.830;7.210;2023-04-08T06:22:22;101532.03;;;11.37;84.31
12636;BME280;6383;50.830;7.210;2023-04-08T06:24:49;101529.59;;;11.36;83.64
12636;BME280;6383;50.830;7.210;2023-04-08T06:27:18;101530.69;;;11.35;83.21
12636;BME280;6383;50.830;7.210;2023-04-08T06:29:47;101535.31;;;11.34;83.33
12636;BME280;6383;50.830;7.210;2023-04-08T06:32:16;101535.88;;;11.31;83.70
12636;BME280;6383;50.830;7.210;2023-04-08T06:34:44;101532.63;;;11.29;83.32
12636;BME280;6383;50.830;7.210;2023-04-08T06:37:13;101536.44;;;11.28;82.80
12636;BME280;6383;50.830;7.210;2023-04-08T06:39:43;101534.53;;;11.28;82.98
12636;BME280;6383;50.830;7.210;2023-04-08T06:42:11;101540.50;;;11.30;83.02
12636;BME280;6383;50.830;7.210;2023-04-08T06:44:40;101545.16;;;11.30;82.61
12636;BME280;6383;50.830;7.210;2023-04-08T06:47:08;101544.31;;;11.29;82.98
12636;BME280;6383;50.830;7.210;2023-04-08T06:49:35;101547.34;;;11.28;82.36
12636;BME280;6383;50.830;7.210;2023-04-08T06:52:04;101552.28;;;11.26;81.83
12636;BME280;6383;50.830;7.210;2023-04-08T06:54:34;101546.28;;;11.24;82.30
12636;BME280;6383;50.830;7.210;2023-04-08T06:57:02;101543.56;;;11.24;81.89
12636;BME280;6383;50.830;7.210;2023-04-08T06:59:31;101544.38;;;11.24;82.59
12636;BME280;6383;50.830;7.210;2023-04-08T07:02:01;101549.00;;;11.24;81.80
12636;BME280;6383;50.830;7.210;2023-04-08T07:04:30;101545.19;;;11.25;82.33
12636;BME280;6383;50.830;7.210;2023-04-08T07:06:59;101550.63;;;11.25;82.00
12636;BME280;6383;50.830;7.210;2023-04-08T07:09:27;101552.28;;;11.26;82.31
12636;BME280;6383;50.830;7.210;2023-04-08T07:11:55;101557.72;;;11.26;82.21
12636;BME280;6383;50.830;7.210;2023-04-08T07:14:25;101558.53;;;11.26;81.90
12636;BME280;6383;50.830;7.210;2023-04-08T07:16:54;101563.19;;;11.26;82.63
12636;BME280;6383;50.830;7.210;2023-04-08T07:19:25;101566.41;;;11.28;81.82
12636;BME280;6383;50.830;7.210;2023-04-08T07:21:54;101569.13;;;11.28;82.04
12636;BME280;6383;50.830;7.210;2023-04-08T07:24:24;101574.31;;;11.29;82.39
12636;BME280;6383;50.830;7.210;2023-04-08T07:26:52;101580.28;;;11.31;82.45
12636;BME280;6383;50.830;7.210;2023-04-08T07:29:23;101585.47;;;11.33;82.21
12636;BME280;6383;50.830;7.210;2023-04-08T07:31:52;101586.28;;;11.34;82.70
12636;BME280;6383;50.830;7.210;2023-04-08T07:34:20;101582.47;;;11.35;82.13
12636;BME280;6383;50.830;7.210;2023-04-08T07:36:51;101587.63;;;11.36;82.44
12636;BME280;6383;50.830;7.210;2023-04-08T07:39:19;101586.00;;;11.35;81.59
12636;BME280;6383;50.830;7.210;2023-04-08T07:41:47;101588.47;;;11.37;82.03
12636;BME280;6383;50.830;7.210;2023-04-08T07:44:17;101586.53;;;11.37;81.97
12636;BME280;6383;50.830;7.210;2023-04-08T07:46:45;101588.47;;;11.37;82.24
12636;BME280;6383;50.830;7.210;2023-04-08T07:49:17;101591.19;;;11.37;82.16
12636;BME280;6383;50.830;7.210;2023-04-08T07:51:45;101597.16;;;11.39;82.65
12636;BME280;6383;50.830;7.210;2023-04-08T07:54:14;101599.91;;;11.39;82.30
12636;BME280;6383;50.830;7.210;2023-04-08T07:56:47;101602.34;;;11.40;82.11
12636;BME280;6383;50.830;7.210;2023-04-08T07:59:15;101602.34;;;11.40;82.79
12636;BME280;6383;50.830;7.210;2023-04-08T08:01:44;101605.63;;;11.42;82.30
12636;BME280;6383;50.830;7.210;2023-04-08T08:04:12;101608.03;;;11.44;82.95
12636;BME280;6383;50.830;7.210;2023-04-08T08:06:41;101605.84;;;11.46;82.05
12636;BME280;6383;50.830;7.210;2023-04-08T08:09:09;101607.47;;;11.47;82.94
12636;BME280;6383;50.830;7.210;2023-04-08T08:11:39;101623.00;;;11.51;82.66
12636;BME280;6383;50.830;7.210;2023-04-08T08:14:08;101608.28;;;11.52;82.07
12636;BME280;6383;50.830;7.210;2023-04-08T08:16:37;101609.38;;;11.51;82.53
12636;BME280;6383;50.830;7.210;2023-04-08T08:19:06;101613.44;;;11.54;82.57
12636;BME280;6383;50.830;7.210;2023-04-08T08:21:35;101615.09;;;11.55;82.25
12636;BME280;6383;50.830;7.210;2023-04-08T08:24:04;101616.44;;;11.57;82.39
12636;BME280;6383;50.830;7.210;2023-04-08T08:26:33;101612.31;;;11.60;82.58
12636;BME280;6383;50.830;7.210;2023-04-08T08:29:03;101618.03;;;11.63;82.14
12636;BME280;6383;50.830;7.210;2023-04-08T08:31:32;101624.00;;;11.65;82.73
12636;BME280;6383;50.830;7.210;2023-04-08T08:34:00;101622.09;;;11.71;82.23
12636;BME280;6383;50.830;7.210;2023-04-08T08:36:30;101632.69;;;11.73;82.61
12636;BME280;6383;50.830;7.210;2023-04-08T08:38:59;101622.31;;;11.75;82.22
12636;BME280;6383;50.830;7.210;2023-04-08T08:41:32;101624.50;;;11.78;82.21
12636;BME280;6383;50.830;7.210;2023-04-08T08:44:06;101627.78;;;11.80;82.37
12636;BME280;6383;50.830;7.210;2023-04-08T08:46:35;101628.31;;;11.82;81.96
12636;BME280;6383;50.830;7.210;2023-04-08T08:49:04;101625.03;;;11.85;82.22
12636;BME280;6383;50.830;7.210;2023-04-08T08:51:32;101629.88;;;11.88;82.25
12636;BME280;6383;50.830;7.210;2023-04-08T08:54:02;101633.97;;;11.90;82.35
12636;BME280;6383;50.830;7.210;2023-04-08T08:56:32;101642.69;;;11.92;82.43
12636;BME280;6383;50.830;7.210;2023-04-08T08:59:01;101638.59;;;11.95;82.17
12636;BME280;6383;50.830;7.210;2023-04-08T09:01:31;101639.66;;;11.99;82.05
12636;BME280;6383;50.830;7.210;2023-04-08T09:04:11;101646.16;;;12.03;82.34
12636;BME280;6383;50.830;7.210;2023-04-08T09:06:39;101635.25;;;12.03;82.16
12636;BME280;6383;50.830;7.210;2023-04-08T09:09:07;101642.06;;;12.06;82.44
12636;BME280;6383;50.830;7.210;2023-04-08T09:11:37;101642.88;;;12.06;82.03
12636;BME280;6383;50.830;7.210;2023-04-08T09:14:20;101642.31;;;12.09;82.07
12636;BME280;6383;50.830;7.210;2023-04-08T09:16:51;101648.88;;;12.08;81.50
12636;BME280;6383;50.830;7.210;2023-04-08T09:19:20;101651.59;;;12.08;82.01
12636;BME280;6383;50.830;7.210;2023-04-08T09:22:04;101648.88;;;12.08;81.24
12636;BME280;6383;50.830;7.210;2023-04-08T09:24:34;101655.41;;;12.07;81.12
12636;BME280;6383;50.830;7.210;2023-04-08T09:27:03;101651.59;;;12.08;80.56
12636;BME280;6383;50.830;7.210;2023-04-08T09:29:31;101654.03;;;12.10;80.64
12636;BME280;6383;50.830;7.210;2023-04-08T09:32:03;101656.75;;;12.10;80.19
12636;BME280;6383;50.830;7.210;2023-04-08T09:34:32;101656.75;;;12.10;79.88
12636;BME280;6383;50.830;7.210;2023-04-08T09:37:01;101656.75;;;12.10;79.76
12636;BME280;6383;50.830;7.210;2023-04-08T09:39:29;101656.47;;;12.11;80.37
12636;BME280;6383;50.830;7.210;2023-04-08T09:41:59;101658.94;;;12.13;79.90
12636;BME280;6383;50.830;7.210;2023-04-08T09:44:32;101662.19;;;12.15;79.98
12636;BME280;6383;50.830;7.210;2023-04-08T09:47:07;101658.94;;;12.13;79.46
12636;BME280;6383;50.830;7.210;2023-04-08T09:49:39;101660.84;;;12.12;79.96
12636;BME280;6383;50.830;7.210;2023-04-08T09:52:14;101658.66;;;12.14;79.62
12636;BME280;6383;50.830;7.210;2023-04-08T09:54:51;101661.91;;;12.16;79.59
12636;BME280;6383;50.830;7.210;2023-04-08T09:57:21;101658.59;;;12.19;80.09
12636;BME280;6383;50.830;7.210;2023-04-08T10:00:01;101659.13;;;12.21;79.69
12636;BME280;6383;50.830;7.210;2023-04-08T10:02:38;101651.19;;;12.25;80.02
12636;BME280;6383;50.830;7.210;2023-04-08T10:05:12;101658.53;;;12.29;79.70
12636;BME280;6383;50.830;7.210;2023-04-08T10:07:42;101654.41;;;12.32;78.94
12636;BME280;6383;50.830;7.210;2023-04-08T10:10:10;101655.75;;;12.34;78.79
12636;BME280;6383;50.830;7.210;2023-04-08T10:12:39;101658.19;;;12.36;77.98
12636;BME280;6383;50.830;7.210;2023-04-08T10:15:23;101652.16;;;12.39;77.25
12636;BME280;6383;50.830;7.210;2023-04-08T10:17:55;101660.66;;;12.38;77.34
12636;BME280;6383;50.830;7.210;2023-04-08T10:20:40;101654.63;;;12.41;77.19
12636;BME280;6383;50.830;7.210;2023-04-08T10:23:10;101647.53;;;12.40;77.17
12636;BME280;6383;50.830;7.210;2023-04-08T10:25:40;101656.53;;;12.40;76.53
12636;BME280;6383;50.830;7.210;2023-04-08T10:28:24;101657.88;;;12.43;76.60
12636;BME280;6383;50.830;7.210;2023-04-08T10:30:54;101666.59;;;12.45;76.98
12636;BME280;6383;50.830;7.210;2023-04-08T10:33:31;101667.09;;;12.47;76.23
12636;BME280;6383;50.830;7.210;2023-04-08T10:36:08;101668.47;;;12.49;76.06
12636;BME280;6383;50.830;7.210;2023-04-08T10:38:37;101654.53;;;12.51;76.52
12636;BME280;6383;50.830;7.210;2023-04-08T10:41:09;101656.97;;;12.52;76.45
12636;BME280;6383;50.830;7.210;2023-04-08T10:43:38;101660.50;;;12.53;75.39
12636;BME280;6383;50.830;7.210;2023-04-08T10:46:09;101661.34;;;12.53;74.81
12636;BME280;6383;50.830;7.210;2023-04-08T10:48:40;101657.78;;;12.53;74.07
12636;BME280;6383;50.830;7.210;2023-04-08T10:51:09;101661.91;;;12.50;74.20
12636;BME280;6383;50.830;7.210;2023-04-08T10:53:38;101661.09;;;12.50;74.49
12636;BME280;6383;50.830;7.210;2023-04-08T10:56:09;101658.34;;;12.50;74.26
12636;BME280;6383;50.830;7.210;2023-04-08T10:58:47;101657.78;;;12.53;74.60
12636;BME280;6383;50.830;7.210;2023-04-08T11:01:17;101653.97;;;12.54;74.31
12636;BME280;6383;50.830;7.210;2023-04-08T11:03:48;101648.22;;;12.55;74.01
12636;BME280;6383;50.830;7.210;2023-04-08T11:06:16;101650.66;;;12.57;73.75
12636;BME280;6383;50.830;7.210;2023-04-08T11:08:45;101645.72;;;12.59;74.25
12636;BME280;6383;50.830;7.210;2023-04-08T11:11:14;101651.19;;;12.59;73.81
12636;BME280;6383;50.830;7.210;2023-04-08T11:13:44;101642.41;;;12.62;73.83
12636;BME280;6383;50.830;7.210;2023-04-08T11:16:13;101640.19;;;12.64;73.45
12636;BME280;6383;50.830;7.210;2023-04-08T11:18:42;101642.13;;;12.63;73.02
12636;BME280;6383;50.830;7.210;2023-04-08T11:21:14;101644.84;;;12.63;72.93
12636;BME280;6383;50.830;7.210;2023-04-08T11:23:44;101644.03;;;12.63;72.17
12636;BME280;6383;50.830;7.210;2023-04-08T11:26:14;101633.91;;;12.63;72.30
12636;BME280;6383;50.830;7.210;2023-04-08T11:28:43;101631.19;;;12.63;71.73
12636;BME280;6383;50.830;7.210;2023-04-08T11:31:13;101645.94;;;12.62;71.37
12636;BME280;6383;50.830;7.210;2023-04-08T11:33:52;101634.72;;;12.64;70.63
12636;BME280;6383;50.830;7.210;2023-04-08T11:36:23;101633.63;;;12.65;71.01
12636;BME280;6383;50.830;7.210;2023-04-08T11:38:53;101634.44;;;12.65;71.07
12636;BME280;6383;50.830;7.210;2023-04-08T11:41:22;101629.00;;;12.65;70.77
12636;BME280;6383;50.830;7.210;2023-04-08T11:43:53;101633.34;;;12.66;70.69
12636;BME280;6383;50.830;7.210;2023-04-08T11:46:23;101629.22;;;12.69;70.72
12636;BME280;6383;50.830;7.210;2023-04-08T11:48:59;101624.59;;;12.69;70.54
12636;BME280;6383;50.830;7.210;2023-04-08T11:51:29;101628.13;;;12.70;70.01
12636;BME280;6383;50.830;7.210;2023-04-08T11:53:56;101629.22;;;12.69;70.51
12636;BME280;6383;50.830;7.210;2023-04-08T11:56:26;101628.94;;;12.70;70.32
12636;BME280;6383;50.830;7.210;2023-04-08T11:58:56;101634.13;;;12.72;69.66
12636;BME280;6383;50.830;7.210;2023-04-08T12:01:26;101635.75;;;12.73;69.55
12636;BME280;6383;50.830;7.210;2023-04-08T12:03:55;101631.09;;;12.74;69.27
12636;BME280;6383;50.830;7.210;2023-04-08T12:06:24;101628.91;;;12.76;69.10
12636;BME280;6383;50.830;7.210;2023-04-08T12:08:55;101635.19;;;12.76;69.14
12636;BME280;6383;50.830;7.210;2023-04-08T12:11:24;101636.22;;;12.80;70.19
12636;BME280;6383;50.830;7.210;2023-04-08T12:13:53;101629.38;;;12.83;69.33
12636;BME280;6383;50.830;7.210;2023-04-08T12:16:23;101632.06;;;12.88;69.24
12636;BME280;6383;50.830;7.210;2023-04-08T12:18:51;101626.31;;;12.89;69.02
12636;BME280;6383;50.830;7.210;2023-04-08T12:21:20;101635.53;;;12.93;68.40
12636;BME280;6383;50.830;7.210;2023-04-08T12:23:49;101637.69;;;12.96;68.28
12636;BME280;6383;50.830;7.210;2023-04-08T12:26:18;101637.94;;;13.00;69.00
12636;BME280;6383;50.830;7.210;2023-04-08T12:28:46;101638.47;;;13.02;68.35
12636;BME280;6383;50.830;7.210;2023-04-08T12:31:15;101635.16;;;13.05;69.00
12636;BME280;6383;50.830;7.210;2023-04-08T12:33:44;101632.41;;;13.05;67.31
12636;BME280;6383;50.830;7.210;2023-04-08T12:36:12;101641.13;;;13.07;65.26
12636;BME280;6383;50.830;7.210;2023-04-08T12:38:41;101632.63;;;13.08;63.68
12636;BME280;6383;50.830;7.210;2023-04-08T12:41:08;101623.31;;;13.10;63.63
12636;BME280;6383;50.830;7.210;2023-04-08T12:43:39;101629.84;;;13.14;63.11
12636;BME280;6383;50.830;7.210;2023-04-08T12:46:08;101624.94;;;13.16;63.95
12636;BME280;6383;50.830;7.210;2023-04-08T12:48:35;101631.75;;;13.18;62.85
12636;BME280;6383;50.830;7.210;2023-04-08T12:51:02;101627.00;;;13.24;62.80
12636;BME280;6383;50.830;7.210;2023-04-08T12:53:31;101624.50;;;13.27;62.07
12636;BME280;6383;50.830;7.210;2023-04-08T12:56:00;101625.84;;;13.30;61.03
12636;BME280;6383;50.830;7.210;2023-04-08T12:58:30;101626.38;;;13.32;60.64
12636;BME280;6383;50.830;7.210;2023-04-08T13:00:59;101625.28;;;13.33;60.33
12636;BME280;6383;50.830;7.210;2023-04-08T13:03:27;101621.94;;;13.36;60.46
12636;BME280;6383;50.830;7.210;2023-04-08T13:05:58;101624.91;;;13.39;60.51
12636;BME280;6383;50.830;7.210;2023-04-08T13:08:27;101624.31;;;13.43;61.02
12636;BME280;6383;50.830;7.210;2023-04-08T13:10:56;101631.34;;;13.49;60.99
12636;BME280;6383;50.830;7.210;2023-04-08T13:13:31;101619.53;;;13.53;61.08